createdAt,value
2022-11-18T00:00:30.617Z,6.77
2022-11-18T00:02:56.764Z,5.63
2022-11-18T00:05:22.958Z,4.67
2022-11-18T00:07:49.128Z,6.07
2022-11-18T00:10:16.102Z,7.63
2022-11-18T00:13:12.038Z,6.80
2022-11-18T00:15:38.876Z,6.53
2022-11-18T00:18:05.067Z,5.53
2022-11-18T00:20:32.928Z,4.17
2022-11-18T00:22:59.335Z,4.20
2022-11-18T00:25:25.549Z,8.70
2022-11-18T00:27:51.689Z,5.97
2022-11-18T00:30:17.901Z,6.17
2022-11-18T00:32:44.669Z,7.40
2022-11-18T00:35:10.810Z,5.07
2022-11-18T00:37:36.963Z,4.23
2022-11-18T00:40:03.690Z,5.73
2022-11-18T00:42:59.670Z,4.33
2022-11-18T00:45:25.860Z,8.87
2022-11-18T00:47:52.650Z,6.73
2022-11-18T00:50:18.868Z,6.60
2022-11-18T00:52:45.072Z,3.47
2022-11-18T00:55:11.206Z,6.03
2022-11-18T00:57:37.335Z,4.10
2022-11-18T01:00:04.493Z,4.03
2022-11-18T01:02:30.649Z,7.57
2022-11-18T01:04:57.449Z,4.77
2022-11-18T01:07:23.761Z,2.90
2022-11-18T01:09:49.958Z,5.20
2022-11-18T01:12:34.445Z,8.63
2022-11-18T01:15:00.617Z,8.77
2022-11-18T01:17:29.669Z,6.27
2022-11-18T01:19:55.859Z,6.27
2022-11-18T01:22:22.649Z,5.43
2022-11-18T01:24:48.870Z,8.30
2022-11-18T01:27:15.018Z,5.33
2022-11-18T01:29:41.349Z,8.57
2022-11-18T01:32:24.889Z,10.40
2022-11-18T01:34:51.623Z,13.53
2022-11-18T01:37:18.068Z,6.40
2022-11-18T01:39:44.905Z,6.43
2022-11-18T01:42:13.893Z,11.27
2022-11-18T01:45:08.801Z,7.07
2022-11-18T01:47:37.900Z,3.33
2022-11-18T01:50:05.381Z,9.30
2022-11-18T01:52:32.345Z,7.50
2022-11-18T01:55:05.070Z,4.37
2022-11-18T01:57:31.598Z,6.43
2022-11-18T01:59:58.870Z,7.70
2022-11-18T02:02:25.935Z,5.73
2022-11-18T02:04:52.770Z,5.17
2022-11-18T02:07:19.874Z,9.20
2022-11-18T02:09:46.586Z,9.77
2022-11-18T02:12:13.608Z,7.50
2022-11-18T02:14:42.021Z,5.73
2022-11-18T02:17:15.053Z,5.37
2022-11-18T02:20:10.892Z,6.43
2022-11-18T02:22:49.567Z,7.17
2022-11-18T02:25:21.291Z,4.90
2022-11-18T02:28:19.759Z,6.37
2022-11-18T02:30:50.635Z,9.10
2022-11-18T02:33:19.890Z,4.83
2022-11-18T02:35:47.258Z,4.67
2022-11-18T02:38:16.491Z,7.13
2022-11-18T02:40:44.794Z,6.97
2022-11-18T02:43:16.068Z,5.63
2022-11-18T02:45:45.153Z,8.63
2022-11-18T02:48:12.880Z,6.33
2022-11-18T02:50:41.156Z,2.00
2022-11-18T02:53:08.265Z,8.03
2022-11-18T02:55:35.890Z,4.83
2022-11-18T02:58:03.368Z,7.63
2022-11-18T03:00:30.293Z,9.43
2022-11-18T03:02:56.469Z,6.27
2022-11-18T03:05:30.264Z,7.53
2022-11-18T03:08:00.032Z,4.87
2022-11-18T03:10:29.320Z,11.27
2022-11-18T03:13:02.501Z,4.20
2022-11-18T03:15:34.507Z,3.27
2022-11-18T03:18:07.437Z,8.53
2022-11-18T03:20:36.414Z,5.93
2022-11-18T03:23:06.766Z,8.80
2022-11-18T03:25:37.496Z,3.80
2022-11-18T03:28:09.127Z,6.10
2022-11-18T03:30:38.545Z,7.00
2022-11-18T03:33:08.837Z,7.77
2022-11-18T03:35:38.082Z,6.20
2022-11-18T03:38:08.484Z,9.07
2022-11-18T03:40:35.945Z,5.73
2022-11-18T03:43:06.038Z,5.73
2022-11-18T03:45:35.337Z,6.83
2022-11-18T03:48:06.336Z,4.73
2022-11-18T03:50:37.314Z,4.70
2022-11-18T03:53:03.776Z,8.67
2022-11-18T03:55:33.478Z,4.10
2022-11-18T03:58:02.749Z,10.07
2022-11-18T04:00:32.753Z,4.97
2022-11-18T04:02:58.998Z,7.10
2022-11-18T04:05:26.352Z,4.83
2022-11-18T04:07:56.689Z,9.83
2022-11-18T04:10:26.028Z,7.90
2022-11-18T04:13:00.684Z,5.27
2022-11-18T04:15:31.416Z,4.93
2022-11-18T04:17:57.616Z,9.00
2022-11-18T04:20:24.139Z,9.70
2022-11-18T04:22:50.433Z,5.30
2022-11-18T04:25:17.347Z,7.23
2022-11-18T04:27:43.518Z,10.80
2022-11-18T04:30:10.613Z,7.93
2022-11-18T04:32:36.759Z,8.13
2022-11-18T04:35:03.094Z,7.00
2022-11-18T04:37:29.236Z,8.90
2022-11-18T04:39:55.373Z,7.00
2022-11-18T04:42:22.174Z,11.13
2022-11-18T04:44:48.343Z,5.10
2022-11-18T04:47:14.544Z,6.87
2022-11-18T04:49:40.733Z,7.30
2022-11-18T04:52:06.965Z,7.30
2022-11-18T04:54:33.110Z,9.10
2022-11-18T04:56:59.285Z,8.97
2022-11-18T04:59:27.790Z,7.47
2022-11-18T05:01:54.313Z,4.60
2022-11-18T05:04:22.772Z,10.00
2022-11-18T05:06:49.122Z,7.47
2022-11-18T05:09:16.013Z,6.80
2022-11-18T05:12:00.847Z,8.67
2022-11-18T05:14:28.524Z,8.83
2022-11-18T05:16:55.315Z,10.93
2022-11-18T05:19:21.618Z,11.60
2022-11-18T05:21:48.224Z,6.60
2022-11-18T05:24:14.594Z,5.97
2022-11-18T05:26:40.765Z,9.57
2022-11-18T05:29:06.911Z,4.83
2022-11-18T05:31:33.693Z,8.30
2022-11-18T05:34:00.510Z,9.40
2022-11-18T05:36:26.650Z,7.87
2022-11-18T05:38:53.131Z,9.33
2022-11-18T05:41:37.983Z,5.13
2022-11-18T05:44:04.716Z,7.93
2022-11-18T05:46:31.569Z,11.03
2022-11-18T05:48:58.313Z,10.70
2022-11-18T05:51:24.529Z,7.43
2022-11-18T05:53:52.192Z,11.10
2022-11-18T05:56:21.715Z,9.83
2022-11-18T05:58:47.928Z,9.57
2022-11-18T06:01:16.332Z,8.83
2022-11-18T06:03:42.581Z,11.90
2022-11-18T06:06:10.591Z,4.47
2022-11-18T06:08:39.089Z,10.40
2022-11-18T06:11:05.627Z,8.53
2022-11-18T06:13:35.648Z,7.60
2022-11-18T06:16:02.154Z,4.43
2022-11-18T06:18:29.891Z,8.70
2022-11-18T06:20:58.957Z,7.83
2022-11-18T06:23:26.064Z,7.80
2022-11-18T06:25:52.445Z,7.23
2022-11-18T06:28:18.813Z,6.77
2022-11-18T06:30:44.974Z,12.90
2022-11-18T06:33:11.186Z,9.80
2022-11-18T06:35:37.336Z,8.00
2022-11-18T06:38:03.661Z,9.73
2022-11-18T06:40:34.720Z,9.70
2022-11-18T06:43:23.769Z,6.60
2022-11-18T06:46:08.901Z,10.67
2022-11-18T06:48:35.592Z,9.13
2022-11-18T06:51:04.434Z,12.00
2022-11-18T06:53:30.570Z,8.30
2022-11-18T06:55:57.344Z,7.70
2022-11-18T06:58:23.499Z,11.73
2022-11-18T07:00:49.678Z,11.90
2022-11-18T07:03:15.806Z,10.17
2022-11-18T07:05:41.933Z,11.80
2022-11-18T07:08:08.079Z,8.33
2022-11-18T07:10:34.198Z,9.13
2022-11-18T07:13:00.977Z,15.63
2022-11-18T07:15:27.172Z,18.57
2022-11-18T07:17:53.306Z,27.67
2022-11-18T07:20:19.453Z,26.80
2022-11-18T07:22:45.628Z,25.33
2022-11-18T07:25:11.819Z,15.30
2022-11-18T07:27:37.944Z,16.20
2022-11-18T07:30:06.058Z,21.03
2022-11-18T07:32:32.527Z,22.43
2022-11-18T07:34:58.664Z,21.83
2022-11-18T07:37:24.818Z,14.60
2022-11-18T07:39:50.955Z,17.80
2022-11-18T07:42:17.089Z,12.60
2022-11-18T07:44:43.245Z,11.07
2022-11-18T07:47:10.027Z,11.37
2022-11-18T07:49:36.149Z,10.87
2022-11-18T07:52:02.313Z,10.77
2022-11-18T07:54:28.483Z,9.10
2022-11-18T07:56:54.647Z,9.33
2022-11-18T07:59:21.118Z,7.90
2022-11-18T08:01:47.533Z,5.17
2022-11-18T08:04:14.571Z,7.57
2022-11-18T08:06:40.766Z,10.80
2022-11-18T08:09:07.580Z,7.60
2022-11-18T08:11:34.241Z,6.50
2022-11-18T08:14:00.433Z,8.90
2022-11-18T08:16:26.972Z,12.20
2022-11-18T08:18:53.234Z,8.20
2022-11-18T08:21:21.397Z,8.17
2022-11-18T08:23:49.456Z,11.53
2022-11-18T08:26:16.150Z,8.70
2022-11-18T08:28:43.619Z,5.93
2022-11-18T08:31:10.827Z,12.70
2022-11-18T08:33:36.993Z,4.70
2022-11-18T08:36:06.178Z,8.03
2022-11-18T08:38:33.099Z,7.10
2022-11-18T08:40:59.278Z,9.53
2022-11-18T08:43:25.451Z,3.47
2022-11-18T08:45:51.581Z,5.67
2022-11-18T08:48:17.759Z,5.93
2022-11-18T08:50:43.926Z,9.77
2022-11-18T08:53:10.185Z,5.80
2022-11-18T08:55:36.960Z,5.97
2022-11-18T08:58:03.168Z,6.70
2022-11-18T09:00:29.315Z,6.60
2022-11-18T09:02:55.577Z,7.37
2022-11-18T09:05:21.701Z,7.00
2022-11-18T09:07:47.898Z,9.20
2022-11-18T09:10:14.886Z,4.47
2022-11-18T09:12:41.708Z,5.17
2022-11-18T09:15:13.881Z,8.50
2022-11-18T09:17:40.900Z,7.23
2022-11-18T09:20:08.297Z,6.57
2022-11-18T09:22:35.888Z,12.00
2022-11-18T09:25:02.057Z,9.60
2022-11-18T09:27:28.200Z,10.77
2022-11-18T09:29:55.026Z,7.87
2022-11-18T09:32:21.157Z,8.50
2022-11-18T09:34:47.802Z,6.00
2022-11-18T09:37:13.962Z,11.00
2022-11-18T09:39:40.121Z,6.10
2022-11-18T09:42:18.707Z,7.23
2022-11-18T09:44:52.537Z,7.73
2022-11-18T09:47:25.765Z,11.37
2022-11-18T09:49:53.211Z,8.17
2022-11-18T09:52:23.135Z,6.37
2022-11-18T09:54:49.730Z,7.30
2022-11-18T09:57:17.236Z,11.30
2022-11-18T09:59:43.821Z,9.70
2022-11-18T10:02:40.046Z,10.83
2022-11-18T10:05:14.677Z,7.90
2022-11-18T10:07:45.920Z,8.00
2022-11-18T10:10:14.945Z,6.70
2022-11-18T10:12:45.153Z,7.33
2022-11-18T10:15:20.062Z,8.13
2022-11-18T10:17:53.449Z,9.67
2022-11-18T10:20:24.985Z,6.00
2022-11-18T10:22:55.041Z,4.47
2022-11-18T10:25:21.394Z,6.33
2022-11-18T10:27:49.129Z,9.90
2022-11-18T10:30:17.444Z,4.93
2022-11-18T10:32:54.807Z,11.70
2022-11-18T10:35:27.777Z,12.60
2022-11-18T10:38:07.849Z,8.93
2022-11-18T10:40:45.187Z,7.83
2022-11-18T10:43:12.859Z,8.07
2022-11-18T10:45:39.286Z,4.63
2022-11-18T10:48:16.489Z,11.57
2022-11-18T10:50:44.155Z,9.13
2022-11-18T10:53:29.446Z,8.20
2022-11-18T10:55:58.396Z,9.03
2022-11-18T10:58:24.826Z,13.00
2022-11-18T11:00:51.070Z,4.20
2022-11-18T11:03:33.529Z,6.90
2022-11-18T11:06:31.350Z,7.00
2022-11-18T11:09:00.090Z,8.40
2022-11-18T11:11:27.954Z,3.77
2022-11-18T11:14:05.338Z,10.77
2022-11-18T11:16:36.041Z,10.50
2022-11-18T11:19:03.696Z,10.03
2022-11-18T11:21:29.881Z,10.33
2022-11-18T11:23:56.009Z,7.80
2022-11-18T11:29:21.288Z,10.43
2022-11-18T11:31:54.336Z,16.00
2022-11-18T11:34:25.910Z,4.10
2022-11-18T11:36:55.965Z,11.90
2022-11-18T11:39:38.178Z,8.33
2022-11-18T11:42:12.066Z,3.37
2022-11-18T11:44:48.706Z,9.83
2022-11-18T11:47:43.909Z,7.93
2022-11-18T11:50:17.194Z,6.33
2022-11-18T11:52:48.000Z,6.87
2022-11-18T11:55:19.001Z,9.13
2022-11-18T11:57:58.167Z,4.63
2022-11-18T12:00:24.382Z,6.07
2022-11-18T12:03:02.132Z,9.90
2022-11-18T12:05:33.403Z,6.83
2022-11-18T12:08:01.753Z,8.00
2022-11-18T12:10:30.879Z,8.73
2022-11-18T12:13:08.109Z,6.67
2022-11-18T12:15:43.055Z,3.90
2022-11-18T12:18:14.195Z,12.13
2022-11-18T12:20:44.614Z,10.53
2022-11-18T12:23:16.193Z,8.77
2022-11-18T12:26:03.363Z,6.50
2022-11-18T12:28:32.102Z,6.47
2022-11-18T12:31:27.528Z,7.23
2022-11-18T12:33:55.073Z,5.97
2022-11-18T12:36:26.131Z,8.83
2022-11-18T12:38:52.495Z,5.80
2022-11-18T12:42:10.471Z,9.60
2022-11-18T12:44:38.499Z,3.33
2022-11-18T12:47:05.360Z,5.70
2022-11-18T12:50:08.499Z,6.30
2022-11-18T12:52:49.251Z,5.40
2022-11-18T12:55:18.860Z,8.43
2022-11-18T12:57:44.976Z,7.43
2022-11-18T13:00:28.077Z,7.43
2022-11-18T13:02:55.731Z,5.77
2022-11-18T13:05:23.350Z,4.93
2022-11-18T13:08:11.433Z,8.40
2022-11-18T13:10:40.439Z,9.90
2022-11-18T13:13:13.238Z,8.13
2022-11-18T13:16:00.224Z,8.37
2022-11-18T13:18:26.539Z,14.13
2022-11-18T13:20:56.853Z,4.20
2022-11-18T13:23:47.769Z,9.17
2022-11-18T13:26:19.540Z,4.13
2022-11-18T13:29:02.914Z,8.03
2022-11-18T13:31:32.838Z,10.17
2022-11-18T13:34:00.711Z,10.60
2022-11-18T13:36:26.909Z,12.13
2022-11-18T13:38:57.567Z,6.17
2022-11-18T13:41:31.767Z,7.40
2022-11-18T13:44:11.326Z,11.93
2022-11-18T13:46:38.183Z,7.90
2022-11-18T13:49:04.454Z,5.53
2022-11-18T13:51:30.839Z,9.43
2022-11-18T13:53:57.877Z,7.47
2022-11-18T13:56:27.936Z,8.03
2022-11-18T14:01:45.791Z,7.30
2022-11-18T14:04:18.906Z,9.27
2022-11-18T14:06:45.219Z,6.67
2022-11-18T14:09:24.434Z,6.37
2022-11-18T14:12:04.632Z,5.43
2022-11-18T14:14:32.830Z,5.43
2022-11-18T14:17:15.696Z,12.20
2022-11-18T14:19:42.120Z,6.87
2022-11-18T14:22:14.467Z,7.10
2022-11-18T14:24:41.703Z,12.03
2022-11-18T14:27:39.246Z,9.37
2022-11-18T14:30:32.184Z,6.33
2022-11-18T14:33:25.286Z,7.13
2022-11-18T14:35:54.074Z,6.93
2022-11-18T14:41:10.913Z,10.53
2022-11-18T14:43:37.141Z,4.47
2022-11-18T14:46:05.254Z,6.83
2022-11-18T14:48:32.726Z,5.83
2022-11-18T14:50:59.195Z,7.47
2022-11-18T14:53:25.699Z,9.63
2022-11-18T14:55:52.874Z,5.00
2022-11-18T14:58:19.881Z,5.90
2022-11-18T15:00:48.366Z,6.00
2022-11-18T15:03:14.987Z,9.97
2022-11-18T15:05:41.159Z,9.33
2022-11-18T15:08:07.567Z,9.10
2022-11-18T15:10:34.443Z,8.00
2022-11-18T15:13:00.628Z,7.27
2022-11-18T15:15:27.747Z,12.30
2022-11-18T15:17:54.240Z,10.33
2022-11-18T15:20:22.254Z,10.00
2022-11-18T15:22:48.397Z,10.53
2022-11-18T15:25:14.667Z,15.13
2022-11-18T15:27:40.791Z,17.63
2022-11-18T15:30:10.242Z,13.63
2022-11-18T15:32:37.029Z,11.40
2022-11-18T15:35:03.692Z,14.40
2022-11-18T15:37:29.838Z,12.13
2022-11-18T15:39:55.995Z,7.83
2022-11-18T15:42:23.607Z,11.70
2022-11-18T15:44:49.870Z,9.40
2022-11-18T15:47:15.988Z,4.77
2022-11-18T15:49:44.536Z,12.03
2022-11-18T15:52:10.968Z,9.10
2022-11-18T15:54:37.207Z,23.80
2022-11-18T15:57:03.438Z,22.87
2022-11-18T15:59:29.655Z,13.07
2022-11-18T16:01:56.112Z,14.07
2022-11-18T16:04:22.763Z,9.43
2022-11-18T16:06:49.881Z,17.33
2022-11-18T16:09:17.303Z,11.23
2022-11-18T16:12:02.203Z,13.87
2022-11-18T16:14:28.442Z,11.37
2022-11-18T16:16:55.863Z,11.60
2022-11-18T16:19:24.008Z,12.30
2022-11-18T16:21:52.668Z,8.47
2022-11-18T16:24:20.702Z,9.77
2022-11-18T16:26:47.375Z,9.53
2022-11-18T16:29:16.141Z,14.77
2022-11-18T16:31:43.294Z,7.30
2022-11-18T16:34:10.749Z,9.67
2022-11-18T16:36:37.730Z,6.97
2022-11-18T16:39:06.474Z,8.63
2022-11-18T16:41:32.674Z,10.97
2022-11-18T16:43:59.414Z,7.73
2022-11-18T16:46:25.927Z,6.20
2022-11-18T16:48:52.246Z,13.23
2022-11-18T16:51:19.921Z,10.90
2022-11-18T16:53:50.556Z,7.27
2022-11-18T16:56:17.382Z,8.37
2022-11-18T16:58:43.584Z,6.77
2022-11-18T17:01:19.642Z,9.10
2022-11-18T17:03:49.775Z,20.17
2022-11-18T17:06:15.900Z,29.80
2022-11-18T17:08:42.041Z,22.37
2022-11-18T17:11:09.197Z,19.70
2022-11-18T17:13:37.051Z,22.70
2022-11-18T17:16:04.493Z,24.37
2022-11-18T17:18:30.653Z,16.37
2022-11-18T17:20:56.831Z,16.43
2022-11-18T17:23:23.011Z,20.20
2022-11-18T17:25:49.141Z,17.00
2022-11-18T17:28:15.278Z,20.37
2022-11-18T17:30:45.742Z,16.80
2022-11-18T17:33:15.888Z,17.87
2022-11-18T17:35:42.059Z,18.83
2022-11-18T17:38:08.203Z,18.77
2022-11-18T17:40:34.359Z,17.33
2022-11-18T17:43:00.662Z,21.37
2022-11-18T17:45:26.783Z,14.07
2022-11-18T17:47:54.618Z,18.13
2022-11-18T17:50:20.755Z,19.13
2022-11-18T17:52:46.863Z,19.10
2022-11-18T17:55:13.125Z,18.17
2022-11-18T17:57:39.287Z,15.20
2022-11-18T18:00:06.981Z,16.20
2022-11-18T18:02:33.139Z,13.07
2022-11-18T18:04:59.896Z,13.70
2022-11-18T18:07:26.061Z,17.00
2022-11-18T18:09:52.365Z,15.43
2022-11-18T18:12:37.010Z,16.37
2022-11-18T18:15:03.654Z,15.93
2022-11-18T18:17:29.806Z,14.23
2022-11-18T18:19:55.961Z,17.83
2022-11-18T18:22:22.898Z,11.00
2022-11-18T18:24:49.026Z,17.10
2022-11-18T18:27:15.148Z,16.83
2022-11-18T18:29:41.281Z,11.17
2022-11-18T18:32:07.375Z,15.47
2022-11-18T18:34:33.524Z,13.87
2022-11-18T18:36:59.766Z,11.10
2022-11-18T18:39:26.580Z,14.00
2022-11-18T18:41:52.705Z,16.13
2022-11-18T18:44:19.153Z,17.33
2022-11-18T18:46:45.086Z,15.90
2022-11-18T18:49:12.826Z,10.90
2022-11-18T18:51:40.103Z,10.80
2022-11-18T18:54:07.367Z,13.10
2022-11-18T18:56:34.367Z,13.03
2022-11-18T18:59:01.115Z,9.73
2022-11-18T19:01:27.815Z,10.20
2022-11-18T19:03:55.307Z,7.53
2022-11-18T19:09:10.879Z,8.93
2022-11-18T19:11:55.950Z,7.17
2022-11-18T19:14:22.877Z,9.53
2022-11-18T19:16:49.383Z,12.97
2022-11-18T19:19:17.710Z,10.90
2022-11-18T19:21:46.853Z,13.13
2022-11-18T19:24:34.887Z,18.63
2022-11-18T19:26:59.810Z,14.40
2022-11-18T19:29:26.075Z,10.13
2022-11-18T19:31:52.277Z,14.03
2022-11-18T19:34:18.701Z,10.30
2022-11-18T19:36:45.053Z,13.17
2022-11-18T19:39:11.259Z,9.63
2022-11-18T19:41:37.442Z,9.47
2022-11-18T19:44:04.975Z,11.37
2022-11-18T19:46:31.839Z,9.73
2022-11-18T19:48:58.159Z,8.47
2022-11-18T19:51:24.373Z,13.43
2022-11-18T19:53:53.615Z,16.23
2022-11-18T19:56:23.743Z,14.80
2022-11-18T19:58:49.999Z,14.20
2022-11-18T20:01:18.830Z,22.37
2022-11-18T20:03:46.525Z,19.93
2022-11-18T20:06:13.449Z,14.87
2022-11-18T20:08:40.310Z,12.43
2022-11-18T20:11:09.536Z,19.70
2022-11-18T20:13:36.812Z,16.90
2022-11-18T20:16:04.750Z,11.17
2022-11-18T20:18:31.995Z,11.47
2022-11-18T20:21:04.513Z,17.40
2022-11-18T20:23:31.432Z,13.27
2022-11-18T20:26:01.115Z,13.73
2022-11-18T20:28:27.937Z,13.33
2022-11-18T20:30:55.217Z,17.47
2022-11-18T20:33:21.769Z,18.93
2022-11-18T20:35:49.318Z,18.93
2022-11-18T20:38:15.603Z,14.47
2022-11-18T20:40:42.514Z,14.20
2022-11-18T20:43:12.907Z,12.30
2022-11-18T20:45:39.498Z,22.20
2022-11-18T20:48:05.749Z,36.50
2022-11-18T20:50:35.544Z,40.53
2022-11-18T20:53:02.356Z,44.57
2022-11-18T20:55:29.109Z,30.43
2022-11-18T20:57:55.862Z,14.73
2022-11-18T21:00:22.166Z,22.63
2022-11-18T21:02:48.680Z,19.30
2022-11-18T21:05:15.382Z,15.13
2022-11-18T21:07:42.075Z,12.10
2022-11-18T21:10:10.072Z,13.27
2022-11-18T21:12:57.117Z,14.77
2022-11-18T21:15:23.586Z,11.87
2022-11-18T21:17:50.149Z,10.27
2022-11-18T21:20:31.410Z,12.07
2022-11-18T21:22:57.837Z,15.97
2022-11-18T21:25:25.024Z,15.40
2022-11-18T21:27:51.155Z,10.63
2022-11-18T21:30:18.443Z,21.83
2022-11-18T21:32:44.642Z,11.60
2022-11-18T21:35:10.860Z,14.70
2022-11-18T21:37:37.022Z,12.70
2022-11-18T21:40:03.744Z,13.53
2022-11-18T21:42:30.541Z,13.23
2022-11-18T21:44:56.719Z,13.47
2022-11-18T21:47:22.915Z,10.97
2022-11-18T21:49:49.085Z,12.47
2022-11-18T21:52:15.223Z,12.70
2022-11-18T21:54:41.370Z,12.50
2022-11-18T21:57:07.534Z,10.63
2022-11-18T21:59:34.406Z,12.80
2022-11-18T22:02:00.540Z,13.00
2022-11-18T22:04:45.161Z,11.67
2022-11-18T22:07:11.328Z,16.00
2022-11-18T22:09:37.507Z,13.03
2022-11-18T22:12:06.019Z,15.50
2022-11-18T22:14:32.214Z,18.87
2022-11-18T22:16:58.977Z,16.57
2022-11-18T22:19:25.123Z,16.17
2022-11-18T22:21:51.273Z,16.17
2022-11-18T22:24:17.411Z,23.20
2022-11-18T22:26:43.630Z,18.50
2022-11-18T22:29:09.882Z,20.00
2022-11-18T22:31:36.575Z,17.47
2022-11-18T22:34:03.347Z,22.20
2022-11-18T22:36:29.493Z,18.30
2022-11-18T22:38:55.675Z,22.97
2022-11-18T22:41:41.534Z,18.17
2022-11-18T22:44:08.780Z,21.13
2022-11-18T22:46:35.476Z,14.57
2022-11-18T22:49:01.779Z,24.20
2022-11-18T22:51:28.868Z,19.73
2022-11-18T22:54:15.890Z,18.53
2022-11-18T22:56:41.347Z,24.73
2022-11-18T22:59:07.891Z,22.33
2022-11-18T23:01:34.074Z,21.47
2022-11-18T23:04:00.202Z,23.67
2022-11-18T23:06:26.336Z,25.40
2022-11-18T23:08:53.117Z,19.33
2022-11-18T23:11:39.678Z,21.30
2022-11-18T23:14:07.094Z,19.47
2022-11-18T23:16:34.704Z,21.30
2022-11-18T23:19:02.138Z,19.90
2022-11-18T23:21:28.295Z,22.10
2022-11-18T23:23:55.244Z,23.50
2022-11-18T23:26:21.785Z,20.43
2022-11-18T23:28:48.131Z,20.20
2022-11-18T23:31:15.717Z,20.03
2022-11-18T23:33:42.455Z,18.17
2022-11-18T23:36:10.457Z,16.60
2022-11-18T23:38:36.935Z,17.93
2022-11-18T23:41:05.380Z,19.57
2022-11-18T23:43:31.600Z,15.53
2022-11-18T23:45:57.922Z,18.70
2022-11-18T23:48:25.358Z,16.10
2022-11-18T23:50:55.070Z,17.90
2022-11-18T23:53:21.402Z,16.27
2022-11-18T23:55:47.591Z,17.87
2022-11-18T23:58:14.413Z,15.67
